sensor_id;sensor_type;location;lat;lon;timestamp;P1;durP1;ratioP1;P2;durP2;ratioP2
73120;SDS011;61307;49.628;-1.624;2023-07-31T00:01:52;7.50;;;3.35;;
73120;SDS011;61307;49.628;-1.624;2023-07-31T00:04:19;8.35;;;3.30;;
73120;SDS011;61307;49.628;-1.624;2023-07-31T00:06:47;7.85;;;3.63;;
73120;SDS011;61307;49.628;-1.624;2023-07-31T00:09:17;6.70;;;3.25;;
73120;SDS011;61307;49.628;-1.624;2023-07-31T00:11:45;8.20;;;3.47;;
73120;SDS011;61307;49.628;-1.624;2023-07-31T00:14:12;8.40;;;3.50;;
73120;SDS011;61307;49.628;-1.624;2023-07-31T00:16:40;7.43;;;3.60;;
73120;SDS011;61307;49.628;-1.624;2023-07-31T00:19:07;8.85;;;3.75;;
73120;SDS011;61307;49.628;-1.624;2023-07-31T00:21:35;8.73;;;3.50;;
73120;SDS011;61307;49.628;-1.624;2023-07-31T00:24:02;7.53;;;3.40;;
73120;SDS011;61307;49.628;-1.624;2023-07-31T00:26:31;9.63;;;3.20;;
73120;SDS011;61307;49.628;-1.624;2023-07-31T00:28:58;8.95;;;3.28;;
73120;SDS011;61307;49.628;-1.624;2023-07-31T00:31:26;8.25;;;3.03;;
73120;SDS011;61307;49.628;-1.624;2023-07-31T00:33:53;7.65;;;3.25;;
73120;SDS011;61307;49.628;-1.624;2023-07-31T00:36:21;5.72;;;2.72;;
73120;SDS011;61307;49.628;-1.624;2023-07-31T00:38:48;7.80;;;3.50;;
73120;SDS011;61307;49.628;-1.624;2023-07-31T00:41:16;7.13;;;2.90;;
73120;SDS011;61307;49.628;-1.624;2023-07-31T00:43:45;5.75;;;3.60;;
73120;SDS011;61307;49.628;-1.624;2023-07-31T00:46:12;8.35;;;3.38;;
73120;SDS011;61307;49.628;-1.624;2023-07-31T00:48:40;7.15;;;2.95;;
73120;SDS011;61307;49.628;-1.624;2023-07-31T00:51:07;9.63;;;3.65;;
73120;SDS011;61307;49.628;-1.624;2023-07-31T00:53:35;7.70;;;3.20;;
73120;SDS011;61307;49.628;-1.624;2023-07-31T00:56:03;6.70;;;3.33;;
73120;SDS011;61307;49.628;-1.624;2023-07-31T00:58:31;8.25;;;3.20;;
73120;SDS011;61307;49.628;-1.624;2023-07-31T01:01:04;6.85;;;3.40;;
73120;SDS011;61307;49.628;-1.624;2023-07-31T01:03:32;7.15;;;3.25;;
73120;SDS011;61307;49.628;-1.624;2023-07-31T01:06:04;5.68;;;3.30;;
73120;SDS011;61307;49.628;-1.624;2023-07-31T01:08:40;6.78;;;3.38;;
73120;SDS011;61307;49.628;-1.624;2023-07-31T01:11:14;10.35;;;3.55;;
73120;SDS011;61307;49.628;-1.624;2023-07-31T01:13:46;8.52;;;3.72;;
73120;SDS011;61307;49.628;-1.624;2023-07-31T01:16:15;6.63;;;3.38;;
73120;SDS011;61307;49.628;-1.624;2023-07-31T01:18:43;6.75;;;3.53;;
73120;SDS011;61307;49.628;-1.624;2023-07-31T01:21:16;7.03;;;3.20;;
73120;SDS011;61307;49.628;-1.624;2023-07-31T01:23:58;6.90;;;3.13;;
73120;SDS011;61307;49.628;-1.624;2023-07-31T01:26:42;6.30;;;3.80;;
73120;SDS011;61307;49.628;-1.624;2023-07-31T01:29:17;8.25;;;3.55;;
73120;SDS011;61307;49.628;-1.624;2023-07-31T01:31:51;6.63;;;2.97;;
73120;SDS011;61307;49.628;-1.624;2023-07-31T01:34:21;8.00;;;3.65;;
73120;SDS011;61307;49.628;-1.624;2023-07-31T01:36:49;7.30;;;3.03;;
73120;SDS011;61307;49.628;-1.624;2023-07-31T01:39:26;9.77;;;3.63;;
73120;SDS011;61307;49.628;-1.624;2023-07-31T01:41:55;9.00;;;3.65;;
73120;SDS011;61307;49.628;-1.624;2023-07-31T01:44:22;8.65;;;3.70;;
73120;SDS011;61307;49.628;-1.624;2023-07-31T01:46:50;5.70;;;3.00;;
73120;SDS011;61307;49.628;-1.624;2023-07-31T01:49:17;5.75;;;3.15;;
73120;SDS011;61307;49.628;-1.624;2023-07-31T01:51:44;6.72;;;3.55;;
73120;SDS011;61307;49.628;-1.624;2023-07-31T01:54:12;8.23;;;3.15;;
73120;SDS011;61307;49.628;-1.624;2023-07-31T01:56:39;7.68;;;3.33;;
73120;SDS011;61307;49.628;-1.624;2023-07-31T01:59:08;8.27;;;3.35;;
73120;SDS011;61307;49.628;-1.624;2023-07-31T02:01:35;8.38;;;3.58;;
73120;SDS011;61307;49.628;-1.624;2023-07-31T02:04:03;7.30;;;3.40;;
73120;SDS011;61307;49.628;-1.624;2023-07-31T02:06:31;7.63;;;3.45;;
73120;SDS011;61307;49.628;-1.624;2023-07-31T02:08:58;6.65;;;3.50;;
73120;SDS011;61307;49.628;-1.624;2023-07-31T02:11:25;6.18;;;3.30;;
73120;SDS011;61307;49.628;-1.624;2023-07-31T02:13:53;7.15;;;3.75;;
73120;SDS011;61307;49.628;-1.624;2023-07-31T02:16:22;6.72;;;3.30;;
73120;SDS011;61307;49.628;-1.624;2023-07-31T02:18:49;6.78;;;3.42;;
73120;SDS011;61307;49.628;-1.624;2023-07-31T02:21:17;8.38;;;3.28;;
73120;SDS011;61307;49.628;-1.624;2023-07-31T02:23:47;5.82;;;3.15;;
73120;SDS011;61307;49.628;-1.624;2023-07-31T02:26:15;9.98;;;3.75;;
73120;SDS011;61307;49.628;-1.624;2023-07-31T02:28:42;6.45;;;3.85;;
73120;SDS011;61307;49.628;-1.624;2023-07-31T02:31:09;9.00;;;3.10;;
73120;SDS011;61307;49.628;-1.624;2023-07-31T02:33:38;6.78;;;2.97;;
73120;SDS011;61307;49.628;-1.624;2023-07-31T02:36:06;7.47;;;3.40;;
73120;SDS011;61307;49.628;-1.624;2023-07-31T02:38:33;7.40;;;3.28;;
73120;SDS011;61307;49.628;-1.624;2023-07-31T02:41:01;5.80;;;2.90;;
73120;SDS011;61307;49.628;-1.624;2023-07-31T02:43:28;8.10;;;3.35;;
73120;SDS011;61307;49.628;-1.624;2023-07-31T02:45:56;6.05;;;2.95;;
73120;SDS011;61307;49.628;-1.624;2023-07-31T02:48:23;8.38;;;3.75;;
73120;SDS011;61307;49.628;-1.624;2023-07-31T02:50:52;7.72;;;3.40;;
73120;SDS011;61307;49.628;-1.624;2023-07-31T02:53:20;5.78;;;3.20;;
73120;SDS011;61307;49.628;-1.624;2023-07-31T02:55:48;8.13;;;3.40;;
73120;SDS011;61307;49.628;-1.624;2023-07-31T02:58:16;7.75;;;3.58;;
73120;SDS011;61307;49.628;-1.624;2023-07-31T03:00:43;10.32;;;3.58;;
73120;SDS011;61307;49.628;-1.624;2023-07-31T03:03:11;7.43;;;3.33;;
73120;SDS011;61307;49.628;-1.624;2023-07-31T03:05:39;6.82;;;3.50;;
73120;SDS011;61307;49.628;-1.624;2023-07-31T03:08:08;8.68;;;3.47;;
73120;SDS011;61307;49.628;-1.624;2023-07-31T03:10:35;8.45;;;3.60;;
73120;SDS011;61307;49.628;-1.624;2023-07-31T03:13:02;6.95;;;3.10;;
73120;SDS011;61307;49.628;-1.624;2023-07-31T03:15:30;6.95;;;2.90;;
73120;SDS011;61307;49.628;-1.624;2023-07-31T03:17:58;5.28;;;2.90;;
73120;SDS011;61307;49.628;-1.624;2023-07-31T03:20:25;11.80;;;3.78;;
73120;SDS011;61307;49.628;-1.624;2023-07-31T03:22:52;8.18;;;3.85;;
73120;SDS011;61307;49.628;-1.624;2023-07-31T03:25:21;8.48;;;3.60;;
73120;SDS011;61307;49.628;-1.624;2023-07-31T03:27:49;8.43;;;3.22;;
73120;SDS011;61307;49.628;-1.624;2023-07-31T03:30:16;5.72;;;3.40;;
73120;SDS011;61307;49.628;-1.624;2023-07-31T03:32:43;10.55;;;3.72;;
73120;SDS011;61307;49.628;-1.624;2023-07-31T03:35:10;6.65;;;3.20;;
73120;SDS011;61307;49.628;-1.624;2023-07-31T03:37:38;9.02;;;3.80;;
73120;SDS011;61307;49.628;-1.624;2023-07-31T03:40:05;8.90;;;3.40;;
73120;SDS011;61307;49.628;-1.624;2023-07-31T03:42:35;9.52;;;3.33;;
73120;SDS011;61307;49.628;-1.624;2023-07-31T03:45:03;9.57;;;3.83;;
73120;SDS011;61307;49.628;-1.624;2023-07-31T03:47:31;6.75;;;3.33;;
73120;SDS011;61307;49.628;-1.624;2023-07-31T03:49:59;6.88;;;3.25;;
73120;SDS011;61307;49.628;-1.624;2023-07-31T03:52:26;6.80;;;2.85;;
73120;SDS011;61307;49.628;-1.624;2023-07-31T03:57:41;6.65;;;3.45;;
73120;SDS011;61307;49.628;-1.624;2023-07-31T04:00:09;6.18;;;3.17;;
73120;SDS011;61307;49.628;-1.624;2023-07-31T04:02:37;7.07;;;3.08;;
73120;SDS011;61307;49.628;-1.624;2023-07-31T04:05:05;7.18;;;3.10;;
73120;SDS011;61307;49.628;-1.624;2023-07-31T04:07:35;7.00;;;3.22;;
73120;SDS011;61307;49.628;-1.624;2023-07-31T04:10:02;7.43;;;3.58;;
73120;SDS011;61307;49.628;-1.624;2023-07-31T04:12:30;8.43;;;3.47;;
73120;SDS011;61307;49.628;-1.624;2023-07-31T04:14:59;6.60;;;2.85;;
73120;SDS011;61307;49.628;-1.624;2023-07-31T04:17:27;11.45;;;3.75;;
73120;SDS011;61307;49.628;-1.624;2023-07-31T04:19:57;9.55;;;3.33;;
73120;SDS011;61307;49.628;-1.624;2023-07-31T04:22:25;8.98;;;3.15;;
73120;SDS011;61307;49.628;-1.624;2023-07-31T04:24:52;7.70;;;3.35;;
73120;SDS011;61307;49.628;-1.624;2023-07-31T04:27:20;7.63;;;3.25;;
73120;SDS011;61307;49.628;-1.624;2023-07-31T04:29:47;5.88;;;2.90;;
73120;SDS011;61307;49.628;-1.624;2023-07-31T04:32:16;8.73;;;3.03;;
73120;SDS011;61307;49.628;-1.624;2023-07-31T04:34:45;7.32;;;3.03;;
73120;SDS011;61307;49.628;-1.624;2023-07-31T04:37:12;8.18;;;3.28;;
73120;SDS011;61307;49.628;-1.624;2023-07-31T04:39:39;6.78;;;3.22;;
73120;SDS011;61307;49.628;-1.624;2023-07-31T04:42:07;9.93;;;3.60;;
73120;SDS011;61307;49.628;-1.624;2023-07-31T04:44:35;5.72;;;2.78;;
73120;SDS011;61307;49.628;-1.624;2023-07-31T04:47:02;5.50;;;3.22;;
73120;SDS011;61307;49.628;-1.624;2023-07-31T04:49:31;5.90;;;3.28;;
73120;SDS011;61307;49.628;-1.624;2023-07-31T04:52:01;4.60;;;2.63;;
73120;SDS011;61307;49.628;-1.624;2023-07-31T04:54:28;7.35;;;3.13;;
73120;SDS011;61307;49.628;-1.624;2023-07-31T04:56:56;5.15;;;3.20;;
73120;SDS011;61307;49.628;-1.624;2023-07-31T04:59:23;5.10;;;2.67;;
73120;SDS011;61307;49.628;-1.624;2023-07-31T05:01:51;6.30;;;2.83;;
73120;SDS011;61307;49.628;-1.624;2023-07-31T05:04:19;7.47;;;3.38;;
73120;SDS011;61307;49.628;-1.624;2023-07-31T05:06:48;8.35;;;3.22;;
73120;SDS011;61307;49.628;-1.624;2023-07-31T05:09:16;8.35;;;2.83;;
73120;SDS011;61307;49.628;-1.624;2023-07-31T05:11:53;7.25;;;2.92;;
73120;SDS011;61307;49.628;-1.624;2023-07-31T05:14:21;6.47;;;3.33;;
73120;SDS011;61307;49.628;-1.624;2023-07-31T05:16:49;6.60;;;2.80;;
73120;SDS011;61307;49.628;-1.624;2023-07-31T05:19:16;7.82;;;2.92;;
73120;SDS011;61307;49.628;-1.624;2023-07-31T05:21:44;5.03;;;2.72;;
73120;SDS011;61307;49.628;-1.624;2023-07-31T05:24:13;7.57;;;3.40;;
73120;SDS011;61307;49.628;-1.624;2023-07-31T05:26:40;8.63;;;2.80;;
73120;SDS011;61307;49.628;-1.624;2023-07-31T05:29:08;4.05;;;2.67;;
73120;SDS011;61307;49.628;-1.624;2023-07-31T05:31:35;8.45;;;2.90;;
73120;SDS011;61307;49.628;-1.624;2023-07-31T05:34:03;8.45;;;2.97;;
73120;SDS011;61307;49.628;-1.624;2023-07-31T05:36:31;8.02;;;2.80;;
73120;SDS011;61307;49.628;-1.624;2023-07-31T05:38:59;7.32;;;3.00;;
73120;SDS011;61307;49.628;-1.624;2023-07-31T05:41:32;7.15;;;3.08;;
73120;SDS011;61307;49.628;-1.624;2023-07-31T05:44:00;5.95;;;2.90;;
73120;SDS011;61307;49.628;-1.624;2023-07-31T05:46:27;6.07;;;2.47;;
73120;SDS011;61307;49.628;-1.624;2023-07-31T05:48:56;6.40;;;2.88;;
73120;SDS011;61307;49.628;-1.624;2023-07-31T05:51:26;6.70;;;2.72;;
73120;SDS011;61307;49.628;-1.624;2023-07-31T05:53:54;6.55;;;2.83;;
73120;SDS011;61307;49.628;-1.624;2023-07-31T05:56:21;5.53;;;2.80;;
73120;SDS011;61307;49.628;-1.624;2023-07-31T05:58:50;4.50;;;2.40;;
73120;SDS011;61307;49.628;-1.624;2023-07-31T06:01:18;7.93;;;2.92;;
73120;SDS011;61307;49.628;-1.624;2023-07-31T06:03:46;6.47;;;2.60;;
73120;SDS011;61307;49.628;-1.624;2023-07-31T06:06:14;6.80;;;2.65;;
73120;SDS011;61307;49.628;-1.624;2023-07-31T06:08:41;5.70;;;2.80;;
73120;SDS011;61307;49.628;-1.624;2023-07-31T06:11:09;3.88;;;2.35;;
73120;SDS011;61307;49.628;-1.624;2023-07-31T06:13:40;7.90;;;3.30;;
73120;SDS011;61307;49.628;-1.624;2023-07-31T06:16:11;5.53;;;2.40;;
73120;SDS011;61307;49.628;-1.624;2023-07-31T06:18:39;4.22;;;2.55;;
73120;SDS011;61307;49.628;-1.624;2023-07-31T06:21:06;4.60;;;2.63;;
73120;SDS011;61307;49.628;-1.624;2023-07-31T06:23:34;6.65;;;2.50;;
73120;SDS011;61307;49.628;-1.624;2023-07-31T06:26:01;5.38;;;2.63;;
73120;SDS011;61307;49.628;-1.624;2023-07-31T06:28:29;3.78;;;2.40;;
73120;SDS011;61307;49.628;-1.624;2023-07-31T06:30:56;5.75;;;2.83;;
73120;SDS011;61307;49.628;-1.624;2023-07-31T06:33:25;4.43;;;2.63;;
73120;SDS011;61307;49.628;-1.624;2023-07-31T06:35:53;4.90;;;2.33;;
73120;SDS011;61307;49.628;-1.624;2023-07-31T06:38:22;3.83;;;2.13;;
73120;SDS011;61307;49.628;-1.624;2023-07-31T06:40:51;5.35;;;2.50;;
73120;SDS011;61307;49.628;-1.624;2023-07-31T06:43:19;4.97;;;2.45;;
73120;SDS011;61307;49.628;-1.624;2023-07-31T06:45:46;5.43;;;2.25;;
73120;SDS011;61307;49.628;-1.624;2023-07-31T06:48:16;5.38;;;2.75;;
73120;SDS011;61307;49.628;-1.624;2023-07-31T06:50:46;3.92;;;2.20;;
73120;SDS011;61307;49.628;-1.624;2023-07-31T06:53:13;3.65;;;2.08;;
73120;SDS011;61307;49.628;-1.624;2023-07-31T06:55:41;5.30;;;2.40;;
73120;SDS011;61307;49.628;-1.624;2023-07-31T06:58:08;3.80;;;2.35;;
73120;SDS011;61307;49.628;-1.624;2023-07-31T07:00:36;4.65;;;2.67;;
73120;SDS011;61307;49.628;-1.624;2023-07-31T07:03:03;5.60;;;2.80;;
73120;SDS011;61307;49.628;-1.624;2023-07-31T07:05:32;6.07;;;2.90;;
73120;SDS011;61307;49.628;-1.624;2023-07-31T07:08:20;5.68;;;2.72;;
73120;SDS011;61307;49.628;-1.624;2023-07-31T07:10:48;4.97;;;2.28;;
73120;SDS011;61307;49.628;-1.624;2023-07-31T07:15:57;8.57;;;2.83;;
73120;SDS011;61307;49.628;-1.624;2023-07-31T07:18:41;5.68;;;2.40;;
73120;SDS011;61307;49.628;-1.624;2023-07-31T07:27:01;4.60;;;2.58;;
73120;SDS011;61307;49.628;-1.624;2023-07-31T07:29:33;3.90;;;2.53;;
73120;SDS011;61307;49.628;-1.624;2023-07-31T07:32:20;3.63;;;2.03;;
73120;SDS011;61307;49.628;-1.624;2023-07-31T07:34:49;3.80;;;2.10;;
73120;SDS011;61307;49.628;-1.624;2023-07-31T07:37:24;5.07;;;2.25;;
73120;SDS011;61307;49.628;-1.624;2023-07-31T07:39:53;3.50;;;2.17;;
73120;SDS011;61307;49.628;-1.624;2023-07-31T07:42:20;2.80;;;1.95;;
73120;SDS011;61307;49.628;-1.624;2023-07-31T07:44:48;7.53;;;2.35;;
73120;SDS011;61307;49.628;-1.624;2023-07-31T07:47:16;4.55;;;2.08;;
73120;SDS011;61307;49.628;-1.624;2023-07-31T07:49:44;3.20;;;2.08;;
73120;SDS011;61307;49.628;-1.624;2023-07-31T07:52:19;7.63;;;1.90;;
73120;SDS011;61307;49.628;-1.624;2023-07-31T07:55:02;4.15;;;1.98;;
73120;SDS011;61307;49.628;-1.624;2023-07-31T08:00:16;29.23;;;19.20;;
73120;SDS011;61307;49.628;-1.624;2023-07-31T08:02:44;10.05;;;5.82;;
73120;SDS011;61307;49.628;-1.624;2023-07-31T08:05:13;7.50;;;3.45;;
73120;SDS011;61307;49.628;-1.624;2023-07-31T08:07:42;5.13;;;2.67;;
73120;SDS011;61307;49.628;-1.624;2023-07-31T08:10:11;4.53;;;2.40;;
73120;SDS011;61307;49.628;-1.624;2023-07-31T08:12:38;4.35;;;2.30;;
73120;SDS011;61307;49.628;-1.624;2023-07-31T08:15:06;5.32;;;2.17;;
73120;SDS011;61307;49.628;-1.624;2023-07-31T08:17:33;11.90;;;2.20;;
73120;SDS011;61307;49.628;-1.624;2023-07-31T08:20:01;11.77;;;1.70;;
73120;SDS011;61307;49.628;-1.624;2023-07-31T08:22:28;7.18;;;1.98;;
73120;SDS011;61307;49.628;-1.624;2023-07-31T08:24:55;7.15;;;4.07;;
73120;SDS011;61307;49.628;-1.624;2023-07-31T08:27:23;4.90;;;3.25;;
73120;SDS011;61307;49.628;-1.624;2023-07-31T08:29:51;3.78;;;2.15;;
73120;SDS011;61307;49.628;-1.624;2023-07-31T08:32:18;6.15;;;2.10;;
73120;SDS011;61307;49.628;-1.624;2023-07-31T08:34:45;4.65;;;2.25;;
73120;SDS011;61307;49.628;-1.624;2023-07-31T08:37:12;4.13;;;2.08;;
73120;SDS011;61307;49.628;-1.624;2023-07-31T08:39:42;4.07;;;1.90;;
73120;SDS011;61307;49.628;-1.624;2023-07-31T08:42:09;4.47;;;2.00;;
73120;SDS011;61307;49.628;-1.624;2023-07-31T08:44:39;4.47;;;2.13;;
73120;SDS011;61307;49.628;-1.624;2023-07-31T08:47:08;5.10;;;2.13;;
73120;SDS011;61307;49.628;-1.624;2023-07-31T08:49:36;2.78;;;1.83;;
73120;SDS011;61307;49.628;-1.624;2023-07-31T08:52:06;6.90;;;2.00;;
73120;SDS011;61307;49.628;-1.624;2023-07-31T08:54:33;2.50;;;1.55;;
73120;SDS011;61307;49.628;-1.624;2023-07-31T08:57:05;3.50;;;1.80;;
73120;SDS011;61307;49.628;-1.624;2023-07-31T08:59:36;3.45;;;1.80;;
73120;SDS011;61307;49.628;-1.624;2023-07-31T09:02:05;3.55;;;1.90;;
73120;SDS011;61307;49.628;-1.624;2023-07-31T09:04:34;6.05;;;2.28;;
73120;SDS011;61307;49.628;-1.624;2023-07-31T09:07:05;1.90;;;1.38;;
73120;SDS011;61307;49.628;-1.624;2023-07-31T09:09:34;4.93;;;2.03;;
73120;SDS011;61307;49.628;-1.624;2023-07-31T09:12:01;2.80;;;1.92;;
73120;SDS011;61307;49.628;-1.624;2023-07-31T09:14:33;3.35;;;2.00;;
73120;SDS011;61307;49.628;-1.624;2023-07-31T09:17:05;3.50;;;1.80;;
73120;SDS011;61307;49.628;-1.624;2023-07-31T09:19:35;2.30;;;1.70;;
73120;SDS011;61307;49.628;-1.624;2023-07-31T09:22:04;3.83;;;1.88;;
73120;SDS011;61307;49.628;-1.624;2023-07-31T09:24:33;7.30;;;2.30;;
73120;SDS011;61307;49.628;-1.624;2023-07-31T09:27:03;3.45;;;2.20;;
73120;SDS011;61307;49.628;-1.624;2023-07-31T09:29:32;7.60;;;2.10;;
73120;SDS011;61307;49.628;-1.624;2023-07-31T09:32:00;3.78;;;2.05;;
73120;SDS011;61307;49.628;-1.624;2023-07-31T09:34:30;4.05;;;2.20;;
73120;SDS011;61307;49.628;-1.624;2023-07-31T09:37:04;6.53;;;2.03;;
73120;SDS011;61307;49.628;-1.624;2023-07-31T09:42:24;4.38;;;2.03;;
73120;SDS011;61307;49.628;-1.624;2023-07-31T09:44:53;7.30;;;2.30;;
73120;SDS011;61307;49.628;-1.624;2023-07-31T09:47:33;3.50;;;2.20;;
73120;SDS011;61307;49.628;-1.624;2023-07-31T09:50:02;3.05;;;2.03;;
73120;SDS011;61307;49.628;-1.624;2023-07-31T09:52:38;3.38;;;1.88;;
73120;SDS011;61307;49.628;-1.624;2023-07-31T09:55:06;3.17;;;2.10;;
73120;SDS011;61307;49.628;-1.624;2023-07-31T09:57:41;2.22;;;1.90;;
73120;SDS011;61307;49.628;-1.624;2023-07-31T10:00:19;2.72;;;1.83;;
73120;SDS011;61307;49.628;-1.624;2023-07-31T10:02:50;4.57;;;2.08;;
73120;SDS011;61307;49.628;-1.624;2023-07-31T10:05:35;2.50;;;1.75;;
73120;SDS011;61307;49.628;-1.624;2023-07-31T10:08:03;3.72;;;1.70;;
73120;SDS011;61307;49.628;-1.624;2023-07-31T10:14:45;2.97;;;1.98;;
73120;SDS011;61307;49.628;-1.624;2023-07-31T10:17:14;11.32;;;6.30;;
73120;SDS011;61307;49.628;-1.624;2023-07-31T10:26:09;19.92;;;15.18;;
73120;SDS011;61307;49.628;-1.624;2023-07-31T10:28:38;12.68;;;11.32;;
73120;SDS011;61307;49.628;-1.624;2023-07-31T10:31:07;16.10;;;14.10;;
73120;SDS011;61307;49.628;-1.624;2023-07-31T10:33:35;25.75;;;22.80;;
73120;SDS011;61307;49.628;-1.624;2023-07-31T10:36:16;20.55;;;18.15;;
73120;SDS011;61307;49.628;-1.624;2023-07-31T10:38:45;17.35;;;14.30;;
73120;SDS011;61307;49.628;-1.624;2023-07-31T10:41:17;14.10;;;12.10;;
73120;SDS011;61307;49.628;-1.624;2023-07-31T10:43:47;14.23;;;12.57;;
73120;SDS011;61307;49.628;-1.624;2023-07-31T10:46:28;47.45;;;42.72;;
73120;SDS011;61307;49.628;-1.624;2023-07-31T10:48:59;31.25;;;27.67;;
73120;SDS011;61307;49.628;-1.624;2023-07-31T10:51:39;23.92;;;21.42;;
73120;SDS011;61307;49.628;-1.624;2023-07-31T10:54:17;20.40;;;18.38;;
73120;SDS011;61307;49.628;-1.624;2023-07-31T10:56:46;18.85;;;16.90;;
73120;SDS011;61307;49.628;-1.624;2023-07-31T11:03:02;17.02;;;13.60;;
73120;SDS011;61307;49.628;-1.624;2023-07-31T11:08:41;15.82;;;10.80;;
73120;SDS011;61307;49.628;-1.624;2023-07-31T11:11:10;11.07;;;9.98;;
73120;SDS011;61307;49.628;-1.624;2023-07-31T11:13:42;10.98;;;9.88;;
73120;SDS011;61307;49.628;-1.624;2023-07-31T11:19:09;9.52;;;8.10;;
73120;SDS011;61307;49.628;-1.624;2023-07-31T11:21:36;8.55;;;7.07;;
73120;SDS011;61307;49.628;-1.624;2023-07-31T11:24:03;7.90;;;6.75;;
73120;SDS011;61307;49.628;-1.624;2023-07-31T11:26:42;10.73;;;7.47;;
73120;SDS011;61307;49.628;-1.624;2023-07-31T11:29:19;7.60;;;6.90;;
73120;SDS011;61307;49.628;-1.624;2023-07-31T11:31:47;7.85;;;6.35;;
73120;SDS011;61307;49.628;-1.624;2023-07-31T11:34:20;7.80;;;6.05;;
73120;SDS011;61307;49.628;-1.624;2023-07-31T11:36:53;7.43;;;5.82;;
73120;SDS011;61307;49.628;-1.624;2023-07-31T11:39:21;8.70;;;5.72;;
73120;SDS011;61307;49.628;-1.624;2023-07-31T11:41:49;9.80;;;6.07;;
73120;SDS011;61307;49.628;-1.624;2023-07-31T11:44:16;5.85;;;4.93;;
73120;SDS011;61307;49.628;-1.624;2023-07-31T11:46:45;4.93;;;4.43;;
73120;SDS011;61307;49.628;-1.624;2023-07-31T11:49:14;5.35;;;4.22;;
73120;SDS011;61307;49.628;-1.624;2023-07-31T11:52:05;5.38;;;4.70;;
73120;SDS011;61307;49.628;-1.624;2023-07-31T11:54:47;5.15;;;4.32;;
73120;SDS011;61307;49.628;-1.624;2023-07-31T11:57:15;6.38;;;3.90;;
73120;SDS011;61307;49.628;-1.624;2023-07-31T11:59:43;4.82;;;3.53;;
73120;SDS011;61307;49.628;-1.624;2023-07-31T12:02:18;4.50;;;3.25;;
73120;SDS011;61307;49.628;-1.624;2023-07-31T12:04:48;3.97;;;3.50;;
73120;SDS011;61307;49.628;-1.624;2023-07-31T12:07:15;7.60;;;4.05;;
73120;SDS011;61307;49.628;-1.624;2023-07-31T12:09:54;4.78;;;3.80;;
73120;SDS011;61307;49.628;-1.624;2023-07-31T12:16:25;4.18;;;3.28;;
73120;SDS011;61307;49.628;-1.624;2023-07-31T12:22:14;3.10;;;2.80;;
73120;SDS011;61307;49.628;-1.624;2023-07-31T12:24:58;3.45;;;2.88;;
73120;SDS011;61307;49.628;-1.624;2023-07-31T12:28:34;5.25;;;3.00;;
73120;SDS011;61307;49.628;-1.624;2023-07-31T12:31:01;3.75;;;2.83;;
73120;SDS011;61307;49.628;-1.624;2023-07-31T12:33:31;5.28;;;2.47;;
73120;SDS011;61307;49.628;-1.624;2023-07-31T12:36:08;2.83;;;2.33;;
73120;SDS011;61307;49.628;-1.624;2023-07-31T12:38:41;3.42;;;2.50;;
73120;SDS011;61307;49.628;-1.624;2023-07-31T12:41:09;4.22;;;2.70;;
73120;SDS011;61307;49.628;-1.624;2023-07-31T12:43:38;4.68;;;2.78;;
73120;SDS011;61307;49.628;-1.624;2023-07-31T12:46:14;3.58;;;2.20;;
73120;SDS011;61307;49.628;-1.624;2023-07-31T12:48:42;2.58;;;1.88;;
73120;SDS011;61307;49.628;-1.624;2023-07-31T12:51:09;6.05;;;2.72;;
73120;SDS011;61307;49.628;-1.624;2023-07-31T12:53:36;2.72;;;1.67;;
73120;SDS011;61307;49.628;-1.624;2023-07-31T12:56:06;3.42;;;2.38;;
73120;SDS011;61307;49.628;-1.624;2023-07-31T12:58:33;3.45;;;2.22;;
73120;SDS011;61307;49.628;-1.624;2023-07-31T13:01:04;3.22;;;1.95;;
73120;SDS011;61307;49.628;-1.624;2023-07-31T13:03:33;2.13;;;1.90;;
73120;SDS011;61307;49.628;-1.624;2023-07-31T13:06:03;3.05;;;1.63;;
73120;SDS011;61307;49.628;-1.624;2023-07-31T13:08:31;4.85;;;1.90;;
73120;SDS011;61307;49.628;-1.624;2023-07-31T13:11:01;2.65;;;1.75;;
73120;SDS011;61307;49.628;-1.624;2023-07-31T13:13:28;4.05;;;1.73;;
73120;SDS011;61307;49.628;-1.624;2023-07-31T13:15:56;2.03;;;1.60;;
73120;SDS011;61307;49.628;-1.624;2023-07-31T13:18:26;2.80;;;1.77;;
73120;SDS011;61307;49.628;-1.624;2023-07-31T13:20:59;2.28;;;1.75;;
73120;SDS011;61307;49.628;-1.624;2023-07-31T13:23:33;1.83;;;1.38;;
73120;SDS011;61307;49.628;-1.624;2023-07-31T13:26:01;2.67;;;1.90;;
73120;SDS011;61307;49.628;-1.624;2023-07-31T13:28:29;7.13;;;1.60;;
73120;SDS011;61307;49.628;-1.624;2023-07-31T13:30:59;2.97;;;1.55;;
73120;SDS011;61307;49.628;-1.624;2023-07-31T13:33:26;1.75;;;1.40;;
73120;SDS011;61307;49.628;-1.624;2023-07-31T13:35:54;7.00;;;1.90;;
73120;SDS011;61307;49.628;-1.624;2023-07-31T13:38:21;2.40;;;1.60;;
73120;SDS011;61307;49.628;-1.624;2023-07-31T13:40:48;4.38;;;1.60;;
73120;SDS011;61307;49.628;-1.624;2023-07-31T13:43:15;2.03;;;1.60;;
73120;SDS011;61307;49.628;-1.624;2023-07-31T13:45:42;3.60;;;1.73;;
73120;SDS011;61307;49.628;-1.624;2023-07-31T13:48:09;2.53;;;1.55;;
73120;SDS011;61307;49.628;-1.624;2023-07-31T13:50:36;2.72;;;1.50;;
73120;SDS011;61307;49.628;-1.624;2023-07-31T13:53:04;3.95;;;1.52;;
73120;SDS011;61307;49.628;-1.624;2023-07-31T13:55:31;2.03;;;1.58;;
73120;SDS011;61307;49.628;-1.624;2023-07-31T13:57:58;1.17;;;1.00;;
73120;SDS011;61307;49.628;-1.624;2023-07-31T14:00:25;3.10;;;1.27;;
73120;SDS011;61307;49.628;-1.624;2023-07-31T14:02:54;2.38;;;1.40;;
73120;SDS011;61307;49.628;-1.624;2023-07-31T14:05:21;2.33;;;1.60;;
73120;SDS011;61307;49.628;-1.624;2023-07-31T14:07:48;2.45;;;1.35;;
73120;SDS011;61307;49.628;-1.624;2023-07-31T14:10:16;2.78;;;1.50;;
73120;SDS011;61307;49.628;-1.624;2023-07-31T14:12:43;4.07;;;1.65;;
73120;SDS011;61307;49.628;-1.624;2023-07-31T14:15:10;4.63;;;1.60;;
73120;SDS011;61307;49.628;-1.624;2023-07-31T14:17:37;5.65;;;1.75;;
73120;SDS011;61307;49.628;-1.624;2023-07-31T14:20:04;3.50;;;1.55;;
73120;SDS011;61307;49.628;-1.624;2023-07-31T14:22:32;4.85;;;1.70;;
73120;SDS011;61307;49.628;-1.624;2023-07-31T14:24:59;3.97;;;1.70;;
73120;SDS011;61307;49.628;-1.624;2023-07-31T14:27:28;3.65;;;1.80;;
73120;SDS011;61307;49.628;-1.624;2023-07-31T14:29:55;2.40;;;1.40;;
73120;SDS011;61307;49.628;-1.624;2023-07-31T14:32:22;4.30;;;1.55;;
73120;SDS011;61307;49.628;-1.624;2023-07-31T14:34:50;2.72;;;1.40;;
73120;SDS011;61307;49.628;-1.624;2023-07-31T14:37:19;3.75;;;1.58;;
73120;SDS011;61307;49.628;-1.624;2023-07-31T14:39:46;4.07;;;1.85;;
73120;SDS011;61307;49.628;-1.624;2023-07-31T14:42:15;3.85;;;1.50;;
73120;SDS011;61307;49.628;-1.624;2023-07-31T14:44:44;4.45;;;1.63;;
73120;SDS011;61307;49.628;-1.624;2023-07-31T14:47:12;3.42;;;1.80;;
73120;SDS011;61307;49.628;-1.624;2023-07-31T14:49:39;3.20;;;1.60;;
73120;SDS011;61307;49.628;-1.624;2023-07-31T14:52:06;4.22;;;1.83;;
73120;SDS011;61307;49.628;-1.624;2023-07-31T14:54:33;6.40;;;2.13;;
73120;SDS011;61307;49.628;-1.624;2023-07-31T14:57:02;3.20;;;1.65;;
73120;SDS011;61307;49.628;-1.624;2023-07-31T14:59:29;2.92;;;1.70;;
73120;SDS011;61307;49.628;-1.624;2023-07-31T15:01:58;7.18;;;1.90;;
73120;SDS011;61307;49.628;-1.624;2023-07-31T15:04:25;3.00;;;1.60;;
73120;SDS011;61307;49.628;-1.624;2023-07-31T15:06:52;4.78;;;1.80;;
73120;SDS011;61307;49.628;-1.624;2023-07-31T15:09:20;4.28;;;1.67;;
73120;SDS011;61307;49.628;-1.624;2023-07-31T15:11:47;4.47;;;2.08;;
73120;SDS011;61307;49.628;-1.624;2023-07-31T15:14:14;7.18;;;1.88;;
73120;SDS011;61307;49.628;-1.624;2023-07-31T15:16:43;8.70;;;1.92;;
73120;SDS011;61307;49.628;-1.624;2023-07-31T15:19:15;3.47;;;1.90;;
73120;SDS011;61307;49.628;-1.624;2023-07-31T15:21:44;6.38;;;1.85;;
73120;SDS011;61307;49.628;-1.624;2023-07-31T15:24:12;4.35;;;2.00;;
73120;SDS011;61307;49.628;-1.624;2023-07-31T15:26:39;3.88;;;1.80;;
73120;SDS011;61307;49.628;-1.624;2023-07-31T15:29:07;3.63;;;1.70;;
73120;SDS011;61307;49.628;-1.624;2023-07-31T15:31:36;3.38;;;1.77;;